Time;durP1;ratioP1;P1;durP2;ratioP2;P2;SDS_P1;SDS_P2;PMS_P1;PMS_P2;Temp;Humidity;BMP_temperature;BMP_pressure;BME280_temperature;BME280_humidity;BME280_pressure;Samples;Min_cycle;Max_cycle;Signal;HPM_P1;HPM_P2
2021/03/13 00:00:32;;;;;;;0.88;0.50;;;;;;;;;;5066427;28;20487;-62
2021/03/13 00:02:58;;;;;;;1.17;0.57;;;;;;;;;;5070705;28;20547;-62
2021/03/13 00:05:28;;;;;;;2.08;0.70;;;;;;;;;;5059031;28;20049;-64
2021/03/13 00:07:53;;;;;;;1.52;0.70;;;;;;;;;;5073533;28;20044;-63
2021/03/13 00:10:19;;;;;;;1.58;0.60;;;;;;;;;;5058119;28;20053;-64
2021/03/13 00:12:44;;;;;;;0.82;0.47;;;;;;;;;;5071828;28;20608;-62
2021/03/13 00:15:14;;;;;;;2.38;0.80;;;;;;;;;;5057770;28;20044;-63
2021/03/13 00:17:43;;;;;;;1.48;0.73;;;;;;;;;;5060507;28;20052;-64
2021/03/13 00:20:10;;;;;;;2.47;0.75;;;;;;;;;;5074425;28;20072;-63
2021/03/13 00:22:35;;;;;;;2.15;0.70;;;;;;;;;;5057864;28;20028;-64
2021/03/13 00:25:01;;;;;;;2.30;0.60;;;;;;;;;;5056016;28;20499;-63
2021/03/13 00:27:26;;;;;;;1.98;0.77;;;;;;;;;;5058011;28;20479;-62
2021/03/13 00:29:52;;;;;;;2.58;0.70;;;;;;;;;;5038803;28;20791;-63
2021/03/13 00:32:17;;;;;;;2.03;0.70;;;;;;;;;;5072022;28;20059;-64
2021/03/13 00:34:43;;;;;;;1.38;0.60;;;;;;;;;;5073695;28;20047;-63
2021/03/13 00:37:08;;;;;;;1.70;0.80;;;;;;;;;;5073074;28;20041;-63
2021/03/13 00:39:34;;;;;;;2.50;0.85;;;;;;;;;;5073437;28;20499;-62
2021/03/13 00:41:59;;;;;;;1.63;0.50;;;;;;;;;;5075345;28;20041;-63
2021/03/13 00:44:24;;;;;;;2.35;0.90;;;;;;;;;;5077548;28;20055;-63
2021/03/13 00:46:50;;;;;;;2.17;0.80;;;;;;;;;;5073906;28;20079;-64
2021/03/13 00:49:16;;;;;;;1.25;0.60;;;;;;;;;;5077377;28;20048;-63
2021/03/13 00:51:41;;;;;;;1.60;0.55;;;;;;;;;;5083132;28;20040;-63
2021/03/13 00:54:09;;;;;;;2.38;0.70;;;;;;;;;;5072831;28;20110;-64
2021/03/13 00:56:34;;;;;;;2.28;0.68;;;;;;;;;;5071602;28;20454;-63
2021/03/13 00:59:00;;;;;;;2.72;0.60;;;;;;;;;;5072106;28;20048;-63
2021/03/13 01:01:25;;;;;;;1.80;0.73;;;;;;;;;;5054209;28;20044;-63
2021/03/13 01:03:51;;;;;;;0.95;0.47;;;;;;;;;;5041573;28;20051;-65
2021/03/13 01:06:16;;;;;;;2.60;0.60;;;;;;;;;;5053593;28;20384;-64
2021/03/13 01:08:42;;;;;;;1.83;0.55;;;;;;;;;;5072126;28;20419;-63
2021/03/13 01:11:16;;;;;;;1.08;0.60;;;;;;;;;;5082098;28;20128;-64
2021/03/13 01:13:47;;;;;;;2.15;0.65;;;;;;;;;;5076750;28;20036;-63
2021/03/13 01:16:14;;;;;;;2.17;0.70;;;;;;;;;;5070594;28;20037;-64
2021/03/13 01:18:42;;;;;;;1.27;0.60;;;;;;;;;;5043789;28;20502;-64
2021/03/13 01:21:11;;;;;;;2.70;0.60;;;;;;;;;;5067042;28;20044;-65
2021/03/13 01:23:41;;;;;;;1.40;0.70;;;;;;;;;;5073536;28;20056;-64
2021/03/13 01:26:08;;;;;;;2.25;0.60;;;;;;;;;;5072632;28;20047;-64
2021/03/13 01:28:34;;;;;;;1.30;0.60;;;;;;;;;;5056070;28;20507;-63
2021/03/13 01:31:07;;;;;;;1.83;0.60;;;;;;;;;;5060600;28;20194;-64
2021/03/13 01:33:36;;;;;;;1.10;0.40;;;;;;;;;;5066642;28;20052;-62
2021/03/13 01:36:03;;;;;;;1.80;0.73;;;;;;;;;;5053487;28;20041;-63
2021/03/13 01:38:32;;;;;;;1.55;0.60;;;;;;;;;;5041058;28;20056;-63
2021/03/13 01:41:00;;;;;;;2.67;0.70;;;;;;;;;;5057095;28;20057;-62
2021/03/13 01:43:26;;;;;;;2.88;0.73;;;;;;;;;;5065858;28;20045;-63
2021/03/13 01:45:51;;;;;;;2.60;0.80;;;;;;;;;;5064802;28;20452;-65
2021/03/13 01:48:17;;;;;;;3.20;0.98;;;;;;;;;;5071342;28;20093;-65
2021/03/13 01:50:46;;;;;;;1.25;0.60;;;;;;;;;;5041890;28;20068;-67
2021/03/13 01:53:11;;;;;;;0.85;0.47;;;;;;;;;;5040796;28;20036;-65
2021/03/13 01:55:38;;;;;;;1.90;0.80;;;;;;;;;;5072974;28;20044;-65
2021/03/13 01:58:06;;;;;;;2.53;0.70;;;;;;;;;;5070597;28;20045;-67
2021/03/13 02:00:40;;;;;;;2.20;0.70;;;;;;;;;;5045915;28;20044;-67
2021/03/13 02:03:07;;;;;;;2.67;0.82;;;;;;;;;;5063389;28;20056;-65
2021/03/13 02:05:36;;;;;;;2.67;0.65;;;;;;;;;;5053688;28;20099;-65
2021/03/13 02:08:21;;;;;;;2.15;0.70;;;;;;;;;;5042308;28;20049;-67
2021/03/13 02:11:20;;;;;;;1.90;0.80;;;;;;;;;;5053543;28;20110;-65
2021/03/13 02:14:12;;;;;;;1.77;0.60;;;;;;;;;;5082221;28;20048;-67
2021/03/13 02:16:50;;;;;;;2.30;0.60;;;;;;;;;;5069341;28;20450;-64
2021/03/13 02:19:47;;;;;;;1.42;0.68;;;;;;;;;;5070623;28;20044;-67
2021/03/13 02:22:13;;;;;;;1.45;0.50;;;;;;;;;;5081084;28;20055;-66
2021/03/13 02:25:11;;;;;;;1.58;0.60;;;;;;;;;;5036849;28;20137;-65
2021/03/13 02:28:01;;;;;;;1.75;0.60;;;;;;;;;;5058216;28;20091;-64
2021/03/13 02:30:29;;;;;;;2.35;0.60;;;;;;;;;;5051742;28;20056;-64
2021/03/13 02:33:04;;;;;;;1.27;0.57;;;;;;;;;;5053882;28;20102;-64
2021/03/13 02:35:47;;;;;;;1.58;0.70;;;;;;;;;;5056112;28;20095;-64
2021/03/13 02:38:17;;;;;;;0.88;0.47;;;;;;;;;;5030903;28;20041;-66
2021/03/13 02:40:43;;;;;;;1.80;0.40;;;;;;;;;;5070943;28;20049;-64
2021/03/13 02:43:10;;;;;;;1.80;0.52;;;;;;;;;;5047123;28;20041;-66
2021/03/13 02:45:40;;;;;;;1.95;0.52;;;;;;;;;;5071168;28;20048;-66
2021/03/13 02:48:08;;;;;;;2.42;0.52;;;;;;;;;;5072217;28;20127;-65
2021/03/13 02:50:34;;;;;;;1.02;0.50;;;;;;;;;;5052098;28;20037;-64
2021/03/13 02:53:04;;;;;;;1.17;0.40;;;;;;;;;;5040894;28;20128;-64
2021/03/13 02:55:30;;;;;;;1.25;0.40;;;;;;;;;;5069278;28;20041;-64
2021/03/13 02:57:56;;;;;;;0.60;0.30;;;;;;;;;;5054950;28;20059;-64
2021/03/13 03:00:22;;;;;;;0.70;0.30;;;;;;;;;;5038577;28;20053;-65
2021/03/13 03:02:53;;;;;;;1.50;0.35;;;;;;;;;;5069682;28;20045;-65
2021/03/13 03:05:21;;;;;;;0.40;0.30;;;;;;;;;;5042131;28;20507;-66
2021/03/13 03:07:46;;;;;;;0.57;0.30;;;;;;;;;;5061437;28;20045;-64
2021/03/13 03:10:14;;;;;;;0.35;0.30;;;;;;;;;;5051207;28;20048;-66
2021/03/13 03:12:41;;;;;;;0.50;0.30;;;;;;;;;;5054686;28;20044;-65
2021/03/13 03:15:07;;;;;;;1.00;0.30;;;;;;;;;;5067519;28;20041;-65
2021/03/13 03:17:34;;;;;;;0.30;0.30;;;;;;;;;;5056308;28;20041;-64
2021/03/13 03:20:00;;;;;;;0.30;0.30;;;;;;;;;;5068159;28;20044;-65
2021/03/13 03:22:30;;;;;;;0.68;0.35;;;;;;;;;;5046407;28;20497;-64
2021/03/13 03:25:03;;;;;;;0.57;0.20;;;;;;;;;;5043102;28;20037;-64
2021/03/13 03:27:29;;;;;;;1.00;0.30;;;;;;;;;;5058435;28;20550;-66
2021/03/13 03:29:56;;;;;;;2.40;0.40;;;;;;;;;;5045654;28;20068;-65
2021/03/13 03:32:22;;;;;;;1.20;0.32;;;;;;;;;;5056532;28;20174;-65
2021/03/13 03:34:48;;;;;;;0.77;0.30;;;;;;;;;;5067489;28;20405;-65
2021/03/13 03:37:13;;;;;;;0.38;0.30;;;;;;;;;;5039270;28;20414;-68
2021/03/13 03:39:39;;;;;;;0.28;0.28;;;;;;;;;;5068543;28;21039;-65
2021/03/13 03:42:09;;;;;;;0.68;0.40;;;;;;;;;;5051238;28;20049;-66
2021/03/13 03:44:41;;;;;;;0.95;0.38;;;;;;;;;;5043802;28;20045;-66
2021/03/13 03:47:10;;;;;;;0.47;0.20;;;;;;;;;;5080874;28;20075;-66
2021/03/13 03:49:38;;;;;;;0.82;0.40;;;;;;;;;;5039085;28;20051;-67
2021/03/13 03:52:24;;;;;;;0.20;0.20;;;;;;;;;;5069856;28;20087;-65
2021/03/13 03:54:50;;;;;;;0.82;0.40;;;;;;;;;;5060502;28;20041;-65
2021/03/13 03:57:15;;;;;;;0.40;0.40;;;;;;;;;;5054484;28;20045;-65
2021/03/13 03:59:41;;;;;;;0.50;0.30;;;;;;;;;;5056596;28;20045;-66
2021/03/13 04:02:06;;;;;;;0.77;0.40;;;;;;;;;;5054520;28;20084;-67
2021/03/13 04:04:32;;;;;;;0.20;0.20;;;;;;;;;;5041339;28;20048;-65
2021/03/13 04:06:58;;;;;;;1.15;0.30;;;;;;;;;;5075878;28;20044;-68
2021/03/13 04:09:24;;;;;;;0.57;0.35;;;;;;;;;;5073308;28;20036;-65
2021/03/13 04:11:50;;;;;;;0.40;0.25;;;;;;;;;;5042158;28;20068;-68
2021/03/13 04:14:16;;;;;;;0.55;0.30;;;;;;;;;;5039749;28;20462;-66
2021/03/13 04:16:41;;;;;;;0.28;0.20;;;;;;;;;;5043602;28;20056;-64
2021/03/13 04:19:07;;;;;;;1.13;0.30;;;;;;;;;;5084700;28;20049;-67
2021/03/13 04:21:32;;;;;;;0.85;0.80;;;;;;;;;;5039787;28;21038;-65
2021/03/13 04:23:58;;;;;;;1.60;1.33;;;;;;;;;;5056039;28;20507;-68
2021/03/13 04:26:24;;;;;;;0.80;0.63;;;;;;;;;;5054285;28;20044;-65
2021/03/13 04:28:49;;;;;;;1.20;0.60;;;;;;;;;;5072882;28;20048;-67
2021/03/13 04:31:16;;;;;;;0.40;0.40;;;;;;;;;;5065225;28;20483;-67
2021/03/13 04:33:42;;;;;;;0.50;0.30;;;;;;;;;;5074766;28;20053;-66
2021/03/13 04:36:08;;;;;;;0.30;0.30;;;;;;;;;;5055616;28;20043;-68
2021/03/13 04:38:34;;;;;;;1.08;0.70;;;;;;;;;;5055376;28;20049;-67
2021/03/13 04:40:59;;;;;;;0.63;0.63;;;;;;;;;;5057603;28;20041;-64
2021/03/13 04:43:25;;;;;;;1.52;0.90;;;;;;;;;;5066281;28;20053;-68
2021/03/13 04:45:54;;;;;;;0.60;0.60;;;;;;;;;;5056608;28;20059;-65
2021/03/13 04:48:20;;;;;;;1.25;1.00;;;;;;;;;;5029706;28;20041;-65
2021/03/13 04:50:45;;;;;;;1.45;0.90;;;;;;;;;;5044775;28;20372;-64
2021/03/13 04:53:11;;;;;;;2.67;1.80;;;;;;;;;;5048498;28;20043;-65
2021/03/13 04:55:36;;;;;;;2.42;1.42;;;;;;;;;;5071546;28;20048;-64
2021/03/13 04:58:02;;;;;;;3.05;2.20;;;;;;;;;;5053826;28;20414;-65
2021/03/13 05:00:27;;;;;;;0.50;0.50;;;;;;;;;;5070920;28;20471;-68
2021/03/13 05:02:53;;;;;;;0.60;0.55;;;;;;;;;;5039179;28;20102;-64
2021/03/13 05:05:18;;;;;;;1.25;0.90;;;;;;;;;;5066303;28;20102;-65
2021/03/13 05:07:43;;;;;;;5.70;3.47;;;;;;;;;;5042122;28;20512;-65
2021/03/13 05:10:09;;;;;;;1.55;1.40;;;;;;;;;;5066673;28;20109;-64
2021/03/13 05:12:35;;;;;;;0.40;0.40;;;;;;;;;;5072552;28;20070;-64
2021/03/13 05:15:04;;;;;;;0.20;0.20;;;;;;;;;;5070490;28;20136;-65
2021/03/13 05:17:30;;;;;;;0.25;0.25;;;;;;;;;;5075783;28;20049;-64
2021/03/13 05:19:55;;;;;;;0.20;0.20;;;;;;;;;;5054362;28;20048;-66
2021/03/13 05:22:21;;;;;;;0.20;0.20;;;;;;;;;;5071457;28;20398;-65
2021/03/13 05:24:46;;;;;;;0.20;0.20;;;;;;;;;;5053648;28;20049;-65
2021/03/13 05:27:12;;;;;;;0.60;0.30;;;;;;;;;;5065653;28;20049;-66
2021/03/13 05:29:37;;;;;;;0.20;0.20;;;;;;;;;;5071385;28;20040;-66
2021/03/13 05:32:03;;;;;;;0.20;0.20;;;;;;;;;;5070493;28;20072;-66
2021/03/13 05:34:28;;;;;;;0.32;0.28;;;;;;;;;;5040775;28;20087;-64
2021/03/13 05:36:54;;;;;;;0.95;0.28;;;;;;;;;;5070035;28;20441;-64
2021/03/13 05:39:19;;;;;;;0.13;0.13;;;;;;;;;;5064427;28;20800;-65
2021/03/13 05:41:46;;;;;;;0.30;0.30;;;;;;;;;;5053265;28;20056;-64
2021/03/13 05:44:12;;;;;;;0.30;0.30;;;;;;;;;;5069148;28;20049;-66
2021/03/13 05:46:37;;;;;;;0.32;0.30;;;;;;;;;;5075791;28;20048;-63
2021/03/13 05:49:07;;;;;;;0.30;0.30;;;;;;;;;;5053820;28;20049;-64
2021/03/13 05:51:45;;;;;;;0.30;0.20;;;;;;;;;;5053119;28;20120;-66
2021/03/13 05:54:17;;;;;;;0.20;0.20;;;;;;;;;;5074929;28;20204;-68
2021/03/13 05:56:43;;;;;;;0.68;0.40;;;;;;;;;;5078994;28;20125;-64
2021/03/13 05:59:10;;;;;;;0.10;0.10;;;;;;;;;;5057135;28;20045;-66
2021/03/13 06:01:35;;;;;;;0.15;0.15;;;;;;;;;;5053511;28;20518;-65
2021/03/13 06:04:01;;;;;;;0.45;0.32;;;;;;;;;;5054316;28;20049;-67
2021/03/13 06:06:29;;;;;;;0.20;0.20;;;;;;;;;;5074167;28;20033;-63
2021/03/13 06:08:55;;;;;;;0.20;0.10;;;;;;;;;;5043564;28;20482;-63
2021/03/13 06:11:21;;;;;;;0.10;0.10;;;;;;;;;;5054867;28;20040;-63
2021/03/13 06:13:47;;;;;;;0.10;0.10;;;;;;;;;;5071922;28;20048;-62
2021/03/13 06:16:13;;;;;;;0.10;0.10;;;;;;;;;;5078467;28;20048;-63
2021/03/13 06:18:53;;;;;;;0.20;0.20;;;;;;;;;;5055077;28;20044;-63
2021/03/13 06:21:31;;;;;;;0.17;0.17;;;;;;;;;;5072776;28;20040;-63
2021/03/13 06:24:01;;;;;;;0.30;0.30;;;;;;;;;;5075076;28;20415;-63
2021/03/13 06:26:27;;;;;;;0.15;0.15;;;;;;;;;;5070878;28;20044;-62
2021/03/13 06:28:54;;;;;;;0.10;0.10;;;;;;;;;;5073593;28;20040;-63
2021/03/13 06:31:24;;;;;;;0.20;0.20;;;;;;;;;;5070349;28;20182;-63
2021/03/13 06:33:49;;;;;;;0.20;0.15;;;;;;;;;;5071378;28;20119;-65
2021/03/13 06:36:19;;;;;;;0.77;0.20;;;;;;;;;;5069476;28;20045;-64
2021/03/13 06:38:45;;;;;;;0.10;0.10;;;;;;;;;;5072099;28;20049;-64
2021/03/13 06:41:16;;;;;;;0.13;0.13;;;;;;;;;;5063609;28;20044;-63
2021/03/13 06:43:41;;;;;;;0.10;0.10;;;;;;;;;;5070503;28;20139;-63
2021/03/13 06:46:08;;;;;;;0.10;0.10;;;;;;;;;;5070322;28;20436;-63
2021/03/13 06:48:44;;;;;;;0.25;0.10;;;;;;;;;;5052786;28;20051;-65
2021/03/13 06:51:28;;;;;;;0.10;0.10;;;;;;;;;;5059588;28;20207;-64
2021/03/13 06:54:09;;;;;;;0.32;0.20;;;;;;;;;;5072030;28;20051;-62
2021/03/13 06:56:53;;;;;;;0.10;0.10;;;;;;;;;;5070122;28;20045;-62
2021/03/13 06:59:26;;;;;;;0.10;0.10;;;;;;;;;;5079677;28;20052;-64
2021/03/13 07:01:58;;;;;;;0.20;0.10;;;;;;;;;;5070735;28;20045;-63
2021/03/13 07:04:31;;;;;;;0.10;0.10;;;;;;;;;;5071162;28;20045;-62
2021/03/13 07:06:57;;;;;;;0.20;0.10;;;;;;;;;;5039117;28;20558;-63
2021/03/13 07:09:45;;;;;;;0.30;0.10;;;;;;;;;;5055448;28;20041;-64
2021/03/13 07:12:22;;;;;;;0.13;0.10;;;;;;;;;;5074557;28;20045;-63
2021/03/13 07:14:47;;;;;;;0.10;0.10;;;;;;;;;;5055701;28;20047;-64
2021/03/13 07:17:14;;;;;;;0.20;0.20;;;;;;;;;;5073209;28;20051;-65
2021/03/13 07:19:40;;;;;;;0.22;0.22;;;;;;;;;;5067755;28;20159;-62
2021/03/13 07:22:05;;;;;;;0.68;0.20;;;;;;;;;;5064790;28;20037;-64
2021/03/13 07:24:31;;;;;;;0.15;0.15;;;;;;;;;;5052930;28;20981;-63
2021/03/13 07:26:56;;;;;;;0.22;0.20;;;;;;;;;;5072834;28;20047;-62
2021/03/13 07:29:22;;;;;;;0.20;0.13;;;;;;;;;;5055401;28;20622;-65
2021/03/13 07:32:03;;;;;;;0.10;0.10;;;;;;;;;;5054514;28;20045;-62
2021/03/13 07:34:30;;;;;;;0.17;0.10;;;;;;;;;;5054259;28;20071;-65
2021/03/13 07:36:58;;;;;;;0.30;0.20;;;;;;;;;;5041952;28;20628;-63
2021/03/13 07:39:44;;;;;;;0.55;0.20;;;;;;;;;;5070898;28;20548;-64
2021/03/13 07:42:17;;;;;;;0.10;0.10;;;;;;;;;;5045740;28;20049;-63
2021/03/13 07:44:43;;;;;;;0.17;0.10;;;;;;;;;;5055463;28;20553;-62
2021/03/13 07:47:10;;;;;;;0.28;0.20;;;;;;;;;;5048167;28;20056;-63
2021/03/13 07:49:35;;;;;;;0.22;0.20;;;;;;;;;;5076004;28;20094;-63
2021/03/13 07:52:01;;;;;;;0.15;0.15;;;;;;;;;;5043355;28;20098;-66
2021/03/13 07:54:26;;;;;;;0.20;0.20;;;;;;;;;;5052972;28;20406;-64
2021/03/13 07:56:52;;;;;;;0.10;0.10;;;;;;;;;;5057401;28;20053;-64
2021/03/13 07:59:40;;;;;;;0.32;0.20;;;;;;;;;;5058660;28;20052;-64
2021/03/13 08:02:32;;;;;;;0.20;0.20;;;;;;;;;;5078130;28;20052;-66
2021/03/13 08:05:01;;;;;;;0.13;0.13;;;;;;;;;;5074904;28;20040;-65
2021/03/13 08:07:27;;;;;;;0.20;0.20;;;;;;;;;;5073134;28;20715;-65
2021/03/13 08:09:52;;;;;;;0.10;0.10;;;;;;;;;;5072186;28;20045;-65
2021/03/13 08:12:40;;;;;;;0.20;0.20;;;;;;;;;;5060998;28;20052;-66
2021/03/13 08:15:12;;;;;;;0.32;0.20;;;;;;;;;;5074942;28;20895;-65
2021/03/13 08:17:39;;;;;;;0.32;0.20;;;;;;;;;;5070713;28;20052;-65
2021/03/13 08:20:09;;;;;;;0.32;0.20;;;;;;;;;;5070979;28;20076;-65
2021/03/13 08:22:34;;;;;;;0.25;0.10;;;;;;;;;;5074096;28;20522;-66
2021/03/13 08:25:00;;;;;;;0.22;0.20;;;;;;;;;;5077463;28;20037;-64
2021/03/13 08:27:38;;;;;;;0.20;0.20;;;;;;;;;;5074584;28;20052;-65
2021/03/13 08:30:19;;;;;;;0.25;0.15;;;;;;;;;;5077029;28;20040;-65
2021/03/13 08:32:58;;;;;;;0.30;0.28;;;;;;;;;;5059977;28;20584;-65
2021/03/13 08:35:50;;;;;;;0.30;0.30;;;;;;;;;;5058270;28;20049;-65
2021/03/13 08:38:19;;;;;;;0.38;0.28;;;;;;;;;;5074059;28;20063;-65
2021/03/13 08:40:52;;;;;;;0.82;0.30;;;;;;;;;;5079571;28;20071;-64
2021/03/13 08:43:53;;;;;;;1.35;1.10;;;;;;;;;;5075029;28;20072;-66
2021/03/13 08:46:44;;;;;;;3.00;2.00;;;;;;;;;;5014147;28;20487;-65
2021/03/13 08:49:13;;;;;;;2.75;1.85;;;;;;;;;;5073100;28;20118;-66
2021/03/13 08:51:39;;;;;;;2.88;1.90;;;;;;;;;;5054835;28;20037;-65
2021/03/13 08:54:04;;;;;;;1.80;1.50;;;;;;;;;;5065979;28;20036;-66
2021/03/13 08:56:47;;;;;;;1.23;0.50;;;;;;;;;;5053896;28;20055;-65
2021/03/13 08:59:17;;;;;;;0.60;0.50;;;;;;;;;;5059652;28;20040;-64
2021/03/13 09:01:44;;;;;;;0.38;0.38;;;;;;;;;;5075697;28;20052;-67
2021/03/13 09:04:10;;;;;;;0.35;0.35;;;;;;;;;;5065278;28;20136;-66
2021/03/13 09:06:38;;;;;;;0.35;0.30;;;;;;;;;;5055580;28;20094;-66
2021/03/13 09:09:15;;;;;;;0.30;0.30;;;;;;;;;;5070335;28;20094;-65
2021/03/13 09:11:41;;;;;;;0.77;0.30;;;;;;;;;;5066960;28;20897;-67
2021/03/13 09:14:07;;;;;;;0.38;0.30;;;;;;;;;;5070488;28;20049;-66
2021/03/13 09:16:34;;;;;;;1.40;0.60;;;;;;;;;;5058139;28;20379;-64
2021/03/13 09:18:59;;;;;;;0.65;0.40;;;;;;;;;;5073069;28;20068;-66
2021/03/13 09:21:38;;;;;;;1.58;0.90;;;;;;;;;;5058959;28;20063;-67
2021/03/13 09:24:05;;;;;;;0.80;0.50;;;;;;;;;;5073542;28;20045;-68
2021/03/13 09:26:30;;;;;;;2.08;1.30;;;;;;;;;;5072457;28;20494;-62
2021/03/13 09:28:56;;;;;;;4.10;1.90;;;;;;;;;;5083000;28;20040;-63
2021/03/13 09:31:21;;;;;;;1.58;0.70;;;;;;;;;;5083569;28;20507;-65
2021/03/13 09:33:47;;;;;;;1.80;1.00;;;;;;;;;;5055517;28;20043;-66
2021/03/13 09:36:13;;;;;;;3.60;1.70;;;;;;;;;;5084981;28;20083;-65
2021/03/13 09:38:38;;;;;;;2.47;0.93;;;;;;;;;;5075133;28;20395;-70
2021/03/13 09:41:14;;;;;;;0.68;0.50;;;;;;;;;;5055610;28;20051;-67
2021/03/13 09:43:40;;;;;;;1.63;0.68;;;;;;;;;;5075855;28;20045;-66
2021/03/13 09:46:18;;;;;;;1.00;0.60;;;;;;;;;;5082055;28;20407;-66
2021/03/13 09:48:47;;;;;;;1.02;0.50;;;;;;;;;;5070404;28;20040;-65
2021/03/13 09:51:12;;;;;;;1.70;0.68;;;;;;;;;;5063340;28;20075;-64
2021/03/13 09:53:39;;;;;;;1.17;0.80;;;;;;;;;;5057185;28;20897;-64
2021/03/13 09:56:05;;;;;;;1.45;0.50;;;;;;;;;;5047732;28;20425;-68
2021/03/13 09:58:31;;;;;;;0.85;0.47;;;;;;;;;;5043023;28;20047;-65
2021/03/13 10:00:56;;;;;;;0.30;0.30;;;;;;;;;;5076811;28;20044;-62
2021/03/13 10:03:22;;;;;;;1.65;0.45;;;;;;;;;;5059594;28;20037;-65
2021/03/13 10:05:51;;;;;;;1.75;0.52;;;;;;;;;;5054555;28;20103;-67
2021/03/13 10:08:18;;;;;;;1.75;0.60;;;;;;;;;;5073258;28;20107;-67
2021/03/13 10:10:48;;;;;;;1.50;0.45;;;;;;;;;;5054997;28;20118;-66
2021/03/13 10:13:14;;;;;;;1.20;0.40;;;;;;;;;;5074400;28;20056;-68
2021/03/13 10:15:40;;;;;;;1.63;0.70;;;;;;;;;;5070412;28;20048;-67
2021/03/13 10:18:06;;;;;;;1.63;0.80;;;;;;;;;;5072956;28;20661;-68
2021/03/13 10:20:42;;;;;;;1.45;0.50;;;;;;;;;;5080863;28;20138;-67
2021/03/13 10:23:17;;;;;;;1.95;0.68;;;;;;;;;;5060053;28;20041;-66
2021/03/13 10:25:52;;;;;;;2.03;0.80;;;;;;;;;;5056512;28;20041;-67
2021/03/13 10:28:18;;;;;;;2.80;0.60;;;;;;;;;;5075130;28;20078;-67
2021/03/13 10:30:44;;;;;;;1.35;0.65;;;;;;;;;;5073861;28;20444;-66
2021/03/13 10:33:10;;;;;;;0.75;0.50;;;;;;;;;;5073276;28;20033;-67
2021/03/13 10:35:36;;;;;;;1.10;0.40;;;;;;;;;;5075675;28;20073;-68
2021/03/13 10:38:03;;;;;;;2.10;0.60;;;;;;;;;;5055372;28;20048;-68
2021/03/13 10:40:45;;;;;;;1.60;0.70;;;;;;;;;;5064609;28;20128;-67
2021/03/13 10:43:10;;;;;;;;;;;;;;;;;;5073979;28;20072;-64
2021/03/13 10:45:36;;;;;;;1.17;0.50;;;;;;;;;;5074187;28;20281;-66
2021/03/13 10:48:05;;;;;;;0.90;0.30;;;;;;;;;;5037510;28;20677;-67
2021/03/13 10:50:31;;;;;;;1.17;0.60;;;;;;;;;;5052756;28;20049;-70
2021/03/13 10:52:56;;;;;;;0.70;0.40;;;;;;;;;;5067860;28;20045;-70
2021/03/13 10:55:37;;;;;;;1.17;0.50;;;;;;;;;;5074251;28;20128;-69
2021/03/13 10:58:02;;;;;;;1.15;0.40;;;;;;;;;;5076004;28;20072;-69
2021/03/13 11:00:28;;;;;;;1.40;0.47;;;;;;;;;;5071830;28;20040;-68
2021/03/13 11:02:53;;;;;;;1.88;0.40;;;;;;;;;;5073661;28;20041;-68
2021/03/13 11:05:19;;;;;;;2.25;0.80;;;;;;;;;;5074426;28;20063;-68
2021/03/13 11:07:44;;;;;;;1.00;0.50;;;;;;;;;;5071934;28;20055;-68
2021/03/13 11:10:10;;;;;;;1.20;0.57;;;;;;;;;;5070911;28;20494;-68
2021/03/13 11:12:36;;;;;;;2.55;0.85;;;;;;;;;;5070931;28;20048;-69
2021/03/13 11:15:01;;;;;;;1.17;0.50;;;;;;;;;;5062098;28;20390;-69
2021/03/13 11:17:27;;;;;;;2.05;0.60;;;;;;;;;;5071306;28;20041;-68
2021/03/13 11:19:52;;;;;;;2.70;0.70;;;;;;;;;;5066472;28;20084;-70
2021/03/13 11:22:17;;;;;;;1.85;0.60;;;;;;;;;;5071388;28;20402;-67
2021/03/13 11:24:43;;;;;;;1.98;0.88;;;;;;;;;;5057562;28;20103;-68
2021/03/13 11:27:09;;;;;;;2.53;0.80;;;;;;;;;;5076202;28;20402;-68
2021/03/13 11:29:34;;;;;;;2.13;0.52;;;;;;;;;;5076612;28;20051;-69
2021/03/13 11:32:00;;;;;;;1.17;0.63;;;;;;;;;;5060602;28;20616;-68
2021/03/13 11:34:25;;;;;;;2.47;0.60;;;;;;;;;;5074164;28;20822;-68
2021/03/13 11:36:51;;;;;;;1.13;0.40;;;;;;;;;;5076825;28;20063;-68
2021/03/13 11:39:16;;;;;;;1.77;0.63;;;;;;;;;;5077186;28;20562;-68
2021/03/13 11:41:42;;;;;;;2.83;0.82;;;;;;;;;;5075013;28;20045;-68
2021/03/13 11:44:09;;;;;;;2.40;0.50;;;;;;;;;;5083301;28;20048;-68
2021/03/13 11:46:35;;;;;;;0.95;0.57;;;;;;;;;;5071602;28;20044;-68
2021/03/13 11:49:01;;;;;;;2.22;0.50;;;;;;;;;;5077252;28;20079;-69
2021/03/13 11:51:26;;;;;;;1.20;0.50;;;;;;;;;;5073921;28;20526;-67
2021/03/13 11:53:52;;;;;;;3.13;0.70;;;;;;;;;;5074256;28;20053;-69
2021/03/13 11:56:17;;;;;;;3.53;0.88;;;;;;;;;;5077356;28;20139;-68
2021/03/13 11:58:43;;;;;;;2.03;0.70;;;;;;;;;;5065960;28;20380;-69
2021/03/13 12:01:08;;;;;;;2.42;0.95;;;;;;;;;;5079243;28;20090;-69
2021/03/13 12:03:33;;;;;;;2.33;0.65;;;;;;;;;;5060987;28;20123;-68
2021/03/13 12:06:04;;;;;;;2.03;0.98;;;;;;;;;;5067526;28;20045;-69
2021/03/13 12:08:29;;;;;;;4.18;1.05;;;;;;;;;;5065580;28;20045;-69
2021/03/13 12:10:55;;;;;;;3.20;1.13;;;;;;;;;;5075944;28;20052;-67
2021/03/13 12:13:20;;;;;;;1.83;0.50;;;;;;;;;;5067028;28;20049;-69
2021/03/13 12:15:46;;;;;;;1.95;0.90;;;;;;;;;;5056326;28;20048;-70
2021/03/13 12:18:11;;;;;;;3.00;0.90;;;;;;;;;;5074325;28;20045;-68
2021/03/13 12:20:37;;;;;;;4.70;1.00;;;;;;;;;;5070951;28;20049;-68
2021/03/13 12:23:03;;;;;;;2.95;0.90;;;;;;;;;;5075868;28;20045;-69
2021/03/13 12:25:29;;;;;;;1.70;0.60;;;;;;;;;;5076641;28;20048;-69
2021/03/13 12:27:54;;;;;;;1.92;0.68;;;;;;;;;;5075114;28;20048;-70
2021/03/13 12:30:20;;;;;;;1.75;0.70;;;;;;;;;;5073385;28;20051;-69
2021/03/13 12:32:46;;;;;;;2.20;0.82;;;;;;;;;;5073946;28;20128;-69
2021/03/13 12:35:11;;;;;;;1.80;0.80;;;;;;;;;;5073341;28;20049;-69
2021/03/13 12:37:37;;;;;;;1.83;0.77;;;;;;;;;;5068575;28;20041;-68
2021/03/13 12:40:07;;;;;;;2.30;0.90;;;;;;;;;;5075042;28;20055;-69
2021/03/13 12:42:32;;;;;;;2.78;1.10;;;;;;;;;;5074782;28;20619;-69
2021/03/13 12:44:58;;;;;;;2.00;0.82;;;;;;;;;;5059731;28;20044;-69
2021/03/13 12:47:23;;;;;;;1.45;0.85;;;;;;;;;;5073763;28;20079;-70
2021/03/13 12:49:49;;;;;;;3.60;1.00;;;;;;;;;;5057173;28;20047;-68
2021/03/13 12:52:14;;;;;;;2.72;1.02;;;;;;;;;;5060130;28;20043;-71
2021/03/13 12:54:40;;;;;;;2.30;0.68;;;;;;;;;;5066332;28;20753;-68
2021/03/13 12:57:06;;;;;;;2.20;0.93;;;;;;;;;;5079475;28;20044;-67
2021/03/13 12:59:31;;;;;;;3.03;0.85;;;;;;;;;;5073983;28;20582;-68
2021/03/13 13:01:57;;;;;;;1.33;0.60;;;;;;;;;;5060598;28;20068;-69
2021/03/13 13:04:22;;;;;;;1.88;0.80;;;;;;;;;;5081636;28;20037;-69
2021/03/13 13:06:48;;;;;;;3.47;1.10;;;;;;;;;;5081292;28;20411;-69
2021/03/13 13:09:13;;;;;;;3.53;0.73;;;;;;;;;;5053710;28;20049;-69
2021/03/13 13:11:38;;;;;;;1.73;0.63;;;;;;;;;;5061889;28;20055;-70
2021/03/13 13:14:05;;;;;;;0.95;0.50;;;;;;;;;;5063112;28;20452;-70
2021/03/13 13:16:31;;;;;;;1.52;0.60;;;;;;;;;;5075187;28;20068;-71
2021/03/13 13:18:57;;;;;;;1.38;0.50;;;;;;;;;;5074382;28;20053;-72
2021/03/13 13:21:22;;;;;;;1.50;0.60;;;;;;;;;;5055611;28;20372;-71
2021/03/13 13:23:48;;;;;;;2.20;0.80;;;;;;;;;;5046098;28;20099;-71
2021/03/13 13:26:13;;;;;;;1.48;0.50;;;;;;;;;;5079473;28;20044;-70
2021/03/13 13:28:39;;;;;;;1.92;0.80;;;;;;;;;;5084745;28;20882;-71
2021/03/13 13:31:04;;;;;;;4.03;1.17;;;;;;;;;;5052854;28;20058;-70
2021/03/13 13:33:30;;;;;;;4.47;1.85;;;;;;;;;;5070520;28;20472;-67
2021/03/13 13:35:55;;;;;;;2.97;1.38;;;;;;;;;;5063373;28;20053;-71
2021/03/13 13:38:21;;;;;;;6.25;2.28;;;;;;;;;;5084384;28;20422;-69
2021/03/13 13:40:47;;;;;;;3.42;1.33;;;;;;;;;;5048508;28;20048;-69
2021/03/13 13:43:12;;;;;;;4.78;1.70;;;;;;;;;;5058108;28;20049;-69
2021/03/13 13:45:38;;;;;;;5.85;2.17;;;;;;;;;;5082186;28;20048;-70
2021/03/13 13:48:04;;;;;;;7.13;3.78;;;;;;;;;;5067845;28;20037;-69
2021/03/13 13:54:12;;;;;;;5.22;2.88;;;;;;;;;;5083041;28;20052;-67
2021/03/13 13:56:37;;;;;;;2.63;1.40;;;;;;;;;;5082381;28;20513;-72
2021/03/13 13:59:05;;;;;;;3.20;1.63;;;;;;;;;;5080160;28;20048;-75
2021/03/13 14:01:32;;;;;;;1.80;1.15;;;;;;;;;;5057869;28;20053;-73
2021/03/13 14:03:57;;;;;;;2.55;0.80;;;;;;;;;;5072425;28;20048;-70
2021/03/13 14:06:23;;;;;;;2.58;0.90;;;;;;;;;;5043525;28;20099;-70
2021/03/13 14:08:48;;;;;;;1.65;0.60;;;;;;;;;;5061797;28;20040;-70
2021/03/13 14:11:14;;;;;;;3.67;0.90;;;;;;;;;;5077095;28;20052;-70
2021/03/13 14:13:39;;;;;;;1.55;0.60;;;;;;;;;;5073211;28;20080;-69
2021/03/13 14:16:05;;;;;;;2.00;0.70;;;;;;;;;;5071174;28;20052;-70
2021/03/13 14:18:30;;;;;;;1.92;0.77;;;;;;;;;;5076967;28;20107;-70
2021/03/13 14:20:56;;;;;;;1.95;0.70;;;;;;;;;;5059807;28;20045;-69
2021/03/13 14:23:22;;;;;;;2.50;1.00;;;;;;;;;;5042092;28;20099;-69
2021/03/13 14:25:47;;;;;;;2.10;0.70;;;;;;;;;;5082629;28;20044;-71
2021/03/13 14:28:13;;;;;;;2.03;0.90;;;;;;;;;;5074022;28;20048;-71
2021/03/13 14:30:38;;;;;;;2.60;1.05;;;;;;;;;;5059690;28;20849;-69
2021/03/13 14:33:04;;;;;;;1.92;0.80;;;;;;;;;;5059406;28;20473;-69
2021/03/13 14:35:30;;;;;;;1.25;0.60;;;;;;;;;;5046979;28;20063;-69
2021/03/13 14:37:58;;;;;;;1.77;0.65;;;;;;;;;;5060269;28;20041;-70
2021/03/13 14:40:24;;;;;;;2.50;1.30;;;;;;;;;;5076034;28;20125;-68
2021/03/13 14:42:50;;;;;;;1.95;0.93;;;;;;;;;;5055798;28;20043;-68
2021/03/13 14:45:16;;;;;;;2.97;1.00;;;;;;;;;;5048833;28;20071;-70
2021/03/13 14:47:43;;;;;;;2.47;0.80;;;;;;;;;;5072097;28;20041;-68
2021/03/13 14:50:08;;;;;;;7.07;3.60;;;;;;;;;;5055805;28;20041;-67
2021/03/13 14:52:35;;;;;;;3.30;1.35;;;;;;;;;;5057530;28;20053;-68